createdAt,value
2023-04-19T00:00:20.583Z,11.17
2023-04-19T00:02:52.267Z,11.00
2023-04-19T00:05:25.014Z,10.85
2023-04-19T00:07:59.733Z,10.72
2023-04-19T00:10:31.251Z,10.67
2023-04-19T00:13:02.693Z,10.90
2023-04-19T00:15:35.507Z,10.76
2023-04-19T00:18:08.851Z,10.65
2023-04-19T00:20:41.514Z,10.44
2023-04-19T00:23:15.660Z,10.27
2023-04-19T00:25:50.322Z,10.23
2023-04-19T00:28:20.239Z,10.19
2023-04-19T00:30:52.105Z,9.99
2023-04-19T00:33:25.925Z,9.95
2023-04-19T00:35:57.304Z,9.92
2023-04-19T00:38:28.921Z,9.81
2023-04-19T00:41:00.840Z,9.57
2023-04-19T00:43:32.335Z,9.40
2023-04-19T00:46:04.130Z,9.41
2023-04-19T00:48:36.436Z,9.31
2023-04-19T00:51:08.365Z,9.11
2023-04-19T00:53:40.680Z,8.91
2023-04-19T00:56:23.963Z,8.91
2023-04-19T00:58:57.951Z,9.00
2023-04-19T01:01:29.525Z,8.96
2023-04-19T01:04:02.046Z,8.88
2023-04-19T01:06:36.181Z,8.88
2023-04-19T01:09:10.816Z,8.80
2023-04-19T01:11:42.529Z,8.83
2023-04-19T01:14:15.526Z,8.74
2023-04-19T01:16:48.334Z,8.77
2023-04-19T01:19:19.827Z,8.61
2023-04-19T01:21:53.938Z,8.52
2023-04-19T01:24:25.688Z,8.62
2023-04-19T01:26:59.412Z,8.68
2023-04-19T01:29:32.439Z,8.68
2023-04-19T01:32:04.063Z,8.56
2023-04-19T01:34:38.518Z,8.49
2023-04-19T01:37:10.282Z,8.38
2023-04-19T01:39:43.249Z,8.37
2023-04-19T01:42:14.911Z,8.46
2023-04-19T01:44:48.512Z,8.53
2023-04-19T01:47:19.974Z,8.63
2023-04-19T01:49:52.859Z,8.68
2023-04-19T01:52:24.406Z,8.61
2023-04-19T01:54:56.028Z,8.75
2023-04-19T01:57:27.804Z,8.98
2023-04-19T02:00:01.291Z,9.08
2023-04-19T02:02:32.896Z,8.96
2023-04-19T02:05:04.302Z,8.90
2023-04-19T02:07:37.908Z,8.98
2023-04-19T02:10:15.881Z,8.89
2023-04-19T02:12:47.519Z,8.92
2023-04-19T02:15:19.197Z,8.87
2023-04-19T02:17:50.937Z,8.87
2023-04-19T02:20:24.284Z,8.71
2023-04-19T02:22:55.810Z,8.61
2023-04-19T02:25:27.464Z,8.58
2023-04-19T02:28:01.605Z,8.66
2023-04-19T02:30:33.233Z,8.66
2023-04-19T02:33:04.742Z,8.64
2023-04-19T02:35:36.501Z,8.72
2023-04-19T02:38:08.178Z,8.71
2023-04-19T02:40:39.714Z,8.67
2023-04-19T02:43:11.676Z,8.67
2023-04-19T02:45:43.265Z,8.63
2023-04-19T02:48:16.692Z,8.51
2023-04-19T02:50:49.517Z,8.54
2023-04-19T02:53:21.664Z,8.45
2023-04-19T02:55:53.268Z,8.65
2023-04-19T02:58:24.834Z,8.62
2023-04-19T03:00:56.584Z,8.63
2023-04-19T03:03:28.995Z,8.53
2023-04-19T03:06:01.375Z,8.46
2023-04-19T03:08:33.586Z,8.39
2023-04-19T03:11:05.142Z,8.41
2023-04-19T03:13:40.048Z,8.45
2023-04-19T03:16:21.020Z,8.42
2023-04-19T03:18:52.632Z,8.45
2023-04-19T03:21:27.499Z,8.38
2023-04-19T03:23:57.316Z,8.43
2023-04-19T03:26:31.954Z,8.44
2023-04-19T03:29:07.231Z,8.48
2023-04-19T03:31:39.645Z,8.40
2023-04-19T03:34:11.163Z,8.37
2023-04-19T03:36:43.432Z,8.45
2023-04-19T03:39:14.820Z,8.51
2023-04-19T03:41:46.372Z,8.56
2023-04-19T03:44:30.705Z,8.65
2023-04-19T03:47:13.100Z,8.68
2023-04-19T03:49:55.929Z,8.59
2023-04-19T03:52:39.231Z,8.63
2023-04-19T03:55:23.247Z,8.69
2023-04-19T03:58:07.583Z,8.67
2023-04-19T04:00:55.165Z,8.70
2023-04-19T04:03:37.689Z,8.63
2023-04-19T04:06:14.222Z,8.59
2023-04-19T04:08:48.923Z,8.51
2023-04-19T04:11:18.813Z,8.38
2023-04-19T04:13:51.992Z,8.26
2023-04-19T04:16:23.855Z,8.30
2023-04-19T04:18:58.002Z,8.31
2023-04-19T04:21:30.200Z,8.22
2023-04-19T04:24:04.082Z,8.21
2023-04-19T04:26:40.859Z,8.30
2023-04-19T04:29:13.868Z,8.21
2023-04-19T04:31:46.097Z,8.21
2023-04-19T04:34:18.133Z,8.33
2023-04-19T04:36:52.146Z,8.26
2023-04-19T04:39:24.293Z,8.15
2023-04-19T04:41:57.939Z,8.30
2023-04-19T04:44:29.403Z,8.23
2023-04-19T04:47:00.878Z,8.19
2023-04-19T04:49:32.371Z,7.96
2023-04-19T04:52:04.025Z,7.98
2023-04-19T04:54:35.394Z,8.07
2023-04-19T04:57:07.002Z,8.15
2023-04-19T04:59:40.222Z,8.07
2023-04-19T05:02:13.109Z,7.93
2023-04-19T05:04:44.832Z,7.86
2023-04-19T05:07:16.330Z,7.87
2023-04-19T05:09:47.904Z,7.87
2023-04-19T05:12:20.936Z,7.87
2023-04-19T05:14:53.673Z,7.72
2023-04-19T05:17:25.513Z,7.63
2023-04-19T05:19:58.187Z,7.53
2023-04-19T05:22:30.780Z,7.60
2023-04-19T05:25:04.583Z,7.59
2023-04-19T05:27:44.779Z,7.64
2023-04-19T05:30:19.495Z,7.62
2023-04-19T05:32:49.261Z,7.64
2023-04-19T05:35:22.123Z,7.78
2023-04-19T05:37:54.295Z,7.73
2023-04-19T05:40:26.735Z,7.76
2023-04-19T05:42:58.837Z,7.75
2023-04-19T05:45:32.924Z,7.58
2023-04-19T05:48:11.221Z,7.68
2023-04-19T05:50:45.474Z,7.68
2023-04-19T05:53:17.404Z,7.69
2023-04-19T05:55:51.210Z,7.66
2023-04-19T05:58:23.652Z,7.64
2023-04-19T06:00:56.253Z,7.74
2023-04-19T06:03:31.062Z,7.96
2023-04-19T06:06:04.110Z,8.17
2023-04-19T06:08:35.935Z,8.10
2023-04-19T06:11:15.843Z,8.13
2023-04-19T06:13:54.891Z,8.18
2023-04-19T06:16:27.893Z,8.04
2023-04-19T06:18:59.849Z,7.97
2023-04-19T06:21:33.389Z,7.88
2023-04-19T06:24:05.347Z,7.79
2023-04-19T06:26:37.156Z,7.81
2023-04-19T06:29:08.762Z,7.86
2023-04-19T06:31:40.310Z,7.94
2023-04-19T06:34:12.616Z,8.06
2023-04-19T06:36:44.248Z,7.96
2023-04-19T06:39:16.520Z,7.89
2023-04-19T06:41:48.007Z,7.79
2023-04-19T06:44:19.989Z,7.77
2023-04-19T06:46:53.452Z,7.81
2023-04-19T06:49:24.917Z,7.69
2023-04-19T06:51:56.916Z,7.63
2023-04-19T06:54:28.745Z,7.77
2023-04-19T06:57:01.170Z,7.82
2023-04-19T06:59:33.881Z,7.86
2023-04-19T07:02:05.442Z,7.84
2023-04-19T07:04:37.524Z,7.83
2023-04-19T07:07:09.365Z,7.78
2023-04-19T07:09:41.776Z,7.71
2023-04-19T07:12:13.760Z,7.68
2023-04-19T07:14:46.192Z,7.77
2023-04-19T07:17:21.828Z,7.95
2023-04-19T07:19:53.725Z,8.20
2023-04-19T07:22:25.805Z,8.11
2023-04-19T07:24:58.884Z,8.00
2023-04-19T07:27:30.665Z,7.99
2023-04-19T07:30:02.267Z,8.05
2023-04-19T07:32:34.017Z,8.15
2023-04-19T07:35:06.500Z,8.30
2023-04-19T07:37:38.488Z,8.55
2023-04-19T07:40:12.569Z,8.55
2023-04-19T07:42:47.056Z,8.57
2023-04-19T07:45:19.225Z,8.46
2023-04-19T07:47:51.073Z,8.47
2023-04-19T07:50:26.952Z,8.47
2023-04-19T07:53:02.603Z,8.44
2023-04-19T07:55:36.199Z,8.44
2023-04-19T07:58:09.573Z,8.40
2023-04-19T08:00:44.540Z,8.35
2023-04-19T08:03:17.769Z,8.43
2023-04-19T08:05:57.180Z,8.54
2023-04-19T08:08:30.693Z,8.65
2023-04-19T08:11:05.828Z,8.79
2023-04-19T08:13:48.597Z,8.96
2023-04-19T08:17:09.055Z,8.98
2023-04-19T08:19:21.576Z,9.06
2023-04-19T08:22:04.380Z,9.14
2023-04-19T08:24:38.194Z,9.14
2023-04-19T08:27:11.716Z,9.20
2023-04-19T08:29:44.695Z,9.18
2023-04-19T08:32:20.118Z,9.31
2023-04-19T08:35:21.256Z,9.45
2023-04-19T08:38:02.048Z,9.51
2023-04-19T08:40:54.533Z,9.70
2023-04-19T08:43:34.304Z,9.70
2023-04-19T08:46:10.377Z,9.62
2023-04-19T08:48:50.320Z,9.56
2023-04-19T08:51:29.117Z,9.59
2023-04-19T08:54:06.611Z,9.51
2023-04-19T08:56:47.337Z,9.48
2023-04-19T08:59:21.242Z,9.56
2023-04-19T09:01:56.524Z,9.52
2023-04-19T09:04:37.003Z,9.29
2023-04-19T09:07:25.331Z,9.12
2023-04-19T09:10:12.210Z,9.04
2023-04-19T09:12:45.636Z,9.08
2023-04-19T09:15:38.822Z,9.06
2023-04-19T09:18:13.245Z,9.04
2023-04-19T09:20:47.027Z,8.99
2023-04-19T09:23:21.878Z,9.00
2023-04-19T09:28:34.921Z,9.10
2023-04-19T09:33:59.085Z,8.96
2023-04-19T09:36:36.676Z,9.11
2023-04-19T09:39:10.370Z,9.07
2023-04-19T09:41:57.164Z,9.00
2023-04-19T09:45:02.214Z,8.99
2023-04-19T09:47:31.097Z,9.02
2023-04-19T09:50:22.771Z,8.97
2023-04-19T09:52:59.958Z,8.94
2023-04-19T09:55:41.278Z,8.88
2023-04-19T09:58:25.066Z,8.92
2023-04-19T10:01:13.310Z,8.97
2023-04-19T10:03:52.158Z,9.07
2023-04-19T10:06:45.897Z,9.10
2023-04-19T10:09:19.795Z,9.09
2023-04-19T10:12:00.481Z,9.07
2023-04-19T10:14:41.407Z,9.00
2023-04-19T10:17:14.535Z,9.00
2023-04-19T10:19:50.130Z,9.02
2023-04-19T10:22:24.522Z,9.13
2023-04-19T10:25:18.122Z,9.05
2023-04-19T10:27:52.197Z,8.94
2023-04-19T10:30:27.722Z,8.99
2023-04-19T10:33:04.921Z,8.96
2023-04-19T10:35:41.891Z,8.96
2023-04-19T10:38:17.148Z,8.93
2023-04-19T10:41:06.380Z,8.96
2023-04-19T10:43:39.807Z,9.14
2023-04-19T10:46:20.660Z,9.25
2023-04-19T10:49:00.204Z,9.12
2023-04-19T10:51:36.130Z,9.02
2023-04-19T10:54:12.922Z,9.01
2023-04-19T10:57:14.135Z,8.95
2023-04-19T10:59:47.101Z,9.12
2023-04-19T11:02:35.224Z,9.45
2023-04-19T11:05:09.157Z,9.54
2023-04-19T11:07:45.851Z,9.69
2023-04-19T11:10:32.356Z,9.75
2023-04-19T11:13:05.500Z,9.77
2023-04-19T11:15:45.054Z,9.76
2023-04-19T11:18:24.578Z,9.82
2023-04-19T11:20:58.525Z,9.78
2023-04-19T11:23:31.734Z,9.78
2023-04-19T11:26:04.443Z,9.91
2023-04-19T11:28:39.162Z,9.91
2023-04-19T11:31:13.431Z,9.85
2023-04-19T11:33:49.159Z,9.92
2023-04-19T11:36:24.205Z,10.03
2023-04-19T11:39:08.533Z,10.04
2023-04-19T11:41:43.644Z,10.04
2023-04-19T11:44:21.714Z,10.18
2023-04-19T11:47:05.654Z,10.21
2023-04-19T11:49:38.615Z,10.22
2023-04-19T11:52:13.960Z,10.24
2023-04-19T11:54:47.812Z,10.32
2023-04-19T11:57:32.379Z,10.42
2023-04-19T12:00:11.513Z,10.44
2023-04-19T12:02:46.949Z,10.45
2023-04-19T12:05:20.323Z,10.32
2023-04-19T12:08:12.598Z,10.30
2023-04-19T12:10:59.891Z,10.29
2023-04-19T12:13:33.339Z,10.28
2023-04-19T12:16:07.889Z,10.26
2023-04-19T12:18:54.061Z,10.39
2023-04-19T12:21:32.612Z,10.43
2023-04-19T12:24:06.944Z,10.28
2023-04-19T12:26:56.320Z,10.20
2023-04-19T12:29:29.806Z,10.37
2023-04-19T12:32:02.380Z,10.41
2023-04-19T12:34:35.569Z,10.35
2023-04-19T12:37:08.193Z,10.39
2023-04-19T12:39:40.931Z,10.31
2023-04-19T12:42:13.979Z,10.25
2023-04-19T12:44:46.847Z,10.33
2023-04-19T12:47:22.282Z,10.42
2023-04-19T12:49:56.614Z,10.34
2023-04-19T12:52:31.806Z,10.31
2023-04-19T12:55:05.235Z,10.31
2023-04-19T12:57:38.679Z,10.26
2023-04-19T13:00:14.037Z,10.33
2023-04-19T13:02:49.309Z,10.27
2023-04-19T13:05:21.684Z,10.32
2023-04-19T13:07:54.525Z,10.30
2023-04-19T13:10:28.930Z,10.24
2023-04-19T13:13:01.692Z,10.28
2023-04-19T13:15:34.246Z,10.42
2023-04-19T13:18:06.109Z,10.51
2023-04-19T13:20:37.832Z,10.65
2023-04-19T13:23:10.046Z,10.64
2023-04-19T13:25:41.849Z,10.72
2023-04-19T13:28:14.523Z,10.88
2023-04-19T13:30:49.596Z,10.94
2023-04-19T13:33:21.485Z,11.08
2023-04-19T13:35:55.564Z,11.20
2023-04-19T13:38:28.282Z,11.21
2023-04-19T13:41:00.442Z,11.08
2023-04-19T13:43:32.951Z,11.04
2023-04-19T13:46:05.059Z,11.10
2023-04-19T13:48:40.773Z,11.04
2023-04-19T13:51:14.503Z,11.00
2023-04-19T13:53:46.512Z,11.06
2023-04-19T13:56:20.076Z,11.24
2023-04-19T13:58:51.743Z,11.24
2023-04-19T14:01:23.543Z,11.23
2023-04-19T14:03:56.606Z,11.23
2023-04-19T14:06:28.522Z,11.21
2023-04-19T14:09:00.740Z,11.18
2023-04-19T14:11:34.940Z,11.12
2023-04-19T14:14:15.813Z,11.24
2023-04-19T14:16:51.075Z,11.20
2023-04-19T14:19:24.707Z,11.16
2023-04-19T14:22:02.073Z,11.13
2023-04-19T14:24:33.962Z,11.10
2023-04-19T14:27:10.205Z,11.18
2023-04-19T14:29:46.529Z,11.38
2023-04-19T14:32:26.551Z,11.43
2023-04-19T14:34:59.098Z,11.44
2023-04-19T14:37:35.337Z,11.57
2023-04-19T14:40:10.958Z,11.58
2023-04-19T14:42:49.154Z,11.66
2023-04-19T14:45:30.835Z,11.64
2023-04-19T14:48:05.609Z,11.56
2023-04-19T14:50:43.089Z,11.57
2023-04-19T14:53:19.559Z,11.62
2023-04-19T14:55:54.008Z,11.76
2023-04-19T14:58:25.734Z,11.88
2023-04-19T15:01:00.099Z,11.79
2023-04-19T15:03:31.905Z,11.76
2023-04-19T15:06:04.061Z,11.80
2023-04-19T15:08:35.850Z,11.83
2023-04-19T15:11:07.873Z,11.77
2023-04-19T15:13:42.365Z,11.80
2023-04-19T15:16:14.059Z,11.72
2023-04-19T15:18:53.572Z,11.73
2023-04-19T15:21:29.859Z,11.84
2023-04-19T15:24:01.707Z,11.80
2023-04-19T15:26:43.629Z,11.71
2023-04-19T15:29:16.250Z,11.62
2023-04-19T15:31:48.274Z,11.59
2023-04-19T15:34:20.380Z,11.54
2023-04-19T15:36:52.176Z,11.48
2023-04-19T15:39:26.007Z,11.37
2023-04-19T15:42:00.517Z,11.40
2023-04-19T15:44:32.501Z,11.44
2023-04-19T15:47:05.128Z,11.44
2023-04-19T15:49:37.189Z,11.42
2023-04-19T15:52:09.962Z,11.45
2023-04-19T15:54:42.073Z,11.45
2023-04-19T15:57:18.235Z,11.58
2023-04-19T15:59:52.272Z,11.53
2023-04-19T16:02:38.147Z,11.42
2023-04-19T16:05:47.738Z,11.42
2023-04-19T16:08:25.591Z,11.42
2023-04-19T16:10:59.293Z,11.39
2023-04-19T16:13:39.128Z,11.37
2023-04-19T16:16:10.940Z,11.33
2023-04-19T16:18:48.594Z,11.22
2023-04-19T16:21:37.638Z,11.21
2023-04-19T16:24:10.361Z,11.22
2023-04-19T16:26:42.680Z,11.25
2023-04-19T16:29:14.742Z,11.18
2023-04-19T16:31:46.645Z,11.12
2023-04-19T16:34:19.377Z,11.18
2023-04-19T16:36:51.218Z,11.14
2023-04-19T16:39:24.324Z,11.18
2023-04-19T16:41:59.668Z,11.09
2023-04-19T16:44:36.923Z,11.10
2023-04-19T16:47:14.404Z,11.21
2023-04-19T16:49:48.321Z,11.15
2023-04-19T16:52:20.307Z,11.03
2023-04-19T16:54:52.102Z,11.02
2023-04-19T16:57:25.201Z,11.09
2023-04-19T17:00:05.197Z,11.10
2023-04-19T17:02:37.900Z,11.12
2023-04-19T17:05:20.661Z,11.04
2023-04-19T17:07:52.979Z,11.02
2023-04-19T17:10:26.687Z,10.92
2023-04-19T17:12:58.279Z,11.01
2023-04-19T17:15:30.447Z,10.82
2023-04-19T17:18:02.323Z,10.76
2023-04-19T17:20:36.190Z,10.78
2023-04-19T17:23:08.216Z,10.90
2023-04-19T17:25:41.579Z,10.95
2023-04-19T17:28:22.168Z,10.83
2023-04-19T17:30:56.630Z,10.63
2023-04-19T17:33:34.291Z,10.52
2023-04-19T17:36:07.280Z,10.54
2023-04-19T17:38:56.954Z,10.56
2023-04-19T17:41:30.362Z,10.59
2023-04-19T17:44:05.190Z,10.67
2023-04-19T17:46:40.767Z,10.73
2023-04-19T17:49:14.422Z,10.75
2023-04-19T17:51:47.766Z,10.70
2023-04-19T17:54:21.463Z,10.67
2023-04-19T17:56:55.801Z,10.59
2023-04-19T17:59:29.134Z,10.46
2023-04-19T18:02:07.588Z,10.34
2023-04-19T18:04:45.199Z,10.32
2023-04-19T18:07:18.983Z,10.31
2023-04-19T18:09:52.371Z,10.23
2023-04-19T18:12:25.550Z,10.39
2023-04-19T18:15:00.830Z,10.33
2023-04-19T18:17:38.204Z,10.30
2023-04-19T18:20:16.425Z,10.33
2023-04-19T18:22:49.809Z,10.34
2023-04-19T18:25:25.529Z,10.38
2023-04-19T18:27:59.826Z,10.35
2023-04-19T18:30:37.410Z,10.30
2023-04-19T18:33:10.378Z,10.38
2023-04-19T18:35:43.517Z,10.43
2023-04-19T18:38:17.997Z,10.38
2023-04-19T18:40:51.242Z,10.41
2023-04-19T18:43:24.513Z,10.40
2023-04-19T18:46:01.706Z,10.39
2023-04-19T18:48:34.216Z,10.34
2023-04-19T18:51:10.213Z,10.25
2023-04-19T18:53:43.778Z,10.17
2023-04-19T18:56:19.410Z,10.19
2023-04-19T18:58:53.789Z,10.17
2023-04-19T19:01:28.916Z,10.20
2023-04-19T19:04:35.020Z,10.24
2023-04-19T19:07:18.303Z,10.26
2023-04-19T19:10:15.966Z,10.25
2023-04-19T19:12:55.446Z,10.24
2023-04-19T19:15:49.439Z,10.27
2023-04-19T19:18:24.480Z,10.22
2023-04-19T19:21:01.263Z,10.16
2023-04-19T19:23:42.112Z,10.14
2023-04-19T19:26:17.820Z,10.24
2023-04-19T19:28:53.700Z,10.27
2023-04-19T19:31:28.629Z,10.29
2023-04-19T19:34:14.724Z,10.25
2023-04-19T19:37:11.410Z,10.13
2023-04-19T19:39:52.217Z,10.19
2023-04-19T19:42:28.796Z,10.12
2023-04-19T19:45:03.519Z,10.05
2023-04-19T19:47:36.308Z,10.10
2023-04-19T19:52:55.798Z,10.11
2023-04-19T19:55:34.033Z,10.09
2023-04-19T20:00:48.630Z,10.09
2023-04-19T20:03:36.069Z,10.20
2023-04-19T20:07:02.959Z,10.25
2023-04-19T20:09:05.488Z,10.28
2023-04-19T20:11:47.628Z,10.29
2023-04-19T20:14:20.902Z,10.23
2023-04-19T20:16:55.340Z,10.22
2023-04-19T20:19:28.041Z,10.17
2023-04-19T20:22:02.681Z,10.05
2023-04-19T20:24:37.907Z,10.08
2023-04-19T20:27:10.593Z,10.10
2023-04-19T20:29:43.209Z,10.11
2023-04-19T20:32:16.601Z,10.08
2023-04-19T20:34:49.340Z,10.07
2023-04-19T20:37:25.347Z,10.04
2023-04-19T20:40:19.972Z,10.06
2023-04-19T20:42:56.569Z,10.02
2023-04-19T20:45:31.340Z,9.93
2023-04-19T20:48:05.587Z,9.85
2023-04-19T20:50:40.200Z,9.67
2023-04-19T20:53:13.835Z,9.52
2023-04-19T20:55:46.262Z,9.67
2023-04-19T20:58:22.108Z,9.59
2023-04-19T21:00:54.032Z,9.45
2023-04-19T21:03:26.323Z,9.43
2023-04-19T21:05:57.968Z,9.46
2023-04-19T21:08:30.085Z,9.49
2023-04-19T21:11:01.656Z,9.54
2023-04-19T21:13:34.346Z,9.37
2023-04-19T21:16:06.589Z,9.46
2023-04-19T21:18:39.140Z,9.34
2023-04-19T21:21:10.647Z,9.30
2023-04-19T21:23:42.176Z,9.28
2023-04-19T21:26:14.594Z,9.30
2023-04-19T21:28:46.476Z,9.47
2023-04-19T21:31:19.521Z,9.58
2023-04-19T21:33:51.079Z,9.54
2023-04-19T21:36:22.950Z,9.48
2023-04-19T21:38:55.655Z,9.59
2023-04-19T21:41:27.354Z,9.55
2023-04-19T21:43:59.200Z,9.64
2023-04-19T21:46:31.084Z,9.50
2023-04-19T21:49:03.189Z,9.50
2023-04-19T21:51:34.574Z,9.40
2023-04-19T21:54:06.763Z,9.51
2023-04-19T21:56:41.857Z,9.65
2023-04-19T21:59:21.638Z,9.49
2023-04-19T22:01:54.265Z,9.24
2023-04-19T22:04:26.568Z,9.39
2023-04-19T22:07:02.731Z,9.37
2023-04-19T22:09:35.709Z,9.28
2023-04-19T22:12:14.053Z,9.39
2023-04-19T22:14:46.428Z,9.35
2023-04-19T22:17:20.165Z,9.28
2023-04-19T22:19:51.988Z,9.40
2023-04-19T22:22:23.788Z,9.31
2023-04-19T22:24:58.017Z,9.31
2023-04-19T22:27:30.158Z,9.24
2023-04-19T22:30:04.587Z,9.16
2023-04-19T22:32:36.596Z,9.29
2023-04-19T22:35:11.610Z,9.36
2023-04-19T22:37:43.303Z,9.33
2023-04-19T22:40:18.499Z,9.33
2023-04-19T22:42:50.011Z,9.49
2023-04-19T22:45:22.907Z,9.48
2023-04-19T22:47:54.305Z,9.46
2023-04-19T22:50:28.696Z,9.43
2023-04-19T22:53:00.133Z,9.49
2023-04-19T22:55:31.806Z,9.52
2023-04-19T22:58:05.099Z,9.62
2023-04-19T23:00:36.824Z,9.61
2023-04-19T23:03:08.404Z,9.63
2023-04-19T23:05:40.476Z,9.62
2023-04-19T23:08:13.271Z,9.68
2023-04-19T23:10:45.536Z,9.64
2023-04-19T23:13:17.420Z,9.64
2023-04-19T23:15:48.875Z,9.70
2023-04-19T23:18:21.608Z,9.68
2023-04-19T23:20:53.235Z,9.66
2023-04-19T23:23:24.888Z,9.70
2023-04-19T23:25:56.259Z,9.75
2023-04-19T23:28:27.711Z,9.77
2023-04-19T23:30:59.167Z,9.75
2023-04-19T23:33:30.659Z,9.72
2023-04-19T23:36:05.022Z,9.55
2023-04-19T23:38:36.564Z,9.66
2023-04-19T23:41:08.149Z,9.63
2023-04-19T23:43:39.811Z,9.63
2023-04-19T23:46:15.760Z,9.67
2023-04-19T23:48:47.705Z,9.74
2023-04-19T23:51:19.157Z,9.83
2023-04-19T23:53:50.885Z,9.83
2023-04-19T23:56:22.282Z,9.83
2023-04-19T23:58:53.796Z,9.75
